sensor_id;sensor_type;location;lat;lon;timestamp;P1;durP1;ratioP1;P2;durP2;ratioP2
35518;SDS011;21627;48.216;16.482;2023-02-28T00:01:38;24.30;;;9.93;;
35518;SDS011;21627;48.216;16.482;2023-02-28T00:04:06;20.87;;;9.73;;
35518;SDS011;21627;48.216;16.482;2023-02-28T00:06:35;19.83;;;9.53;;
35518;SDS011;21627;48.216;16.482;2023-02-28T00:09:06;17.43;;;9.63;;
35518;SDS011;21627;48.216;16.482;2023-02-28T00:11:33;18.73;;;9.30;;
35518;SDS011;21627;48.216;16.482;2023-02-28T00:14:00;21.73;;;9.97;;
35518;SDS011;21627;48.216;16.482;2023-02-28T00:16:27;17.87;;;9.47;;
35518;SDS011;21627;48.216;16.482;2023-02-28T00:18:55;22.87;;;10.30;;
35518;SDS011;21627;48.216;16.482;2023-02-28T00:21:22;20.57;;;9.70;;
35518;SDS011;21627;48.216;16.482;2023-02-28T00:23:50;16.93;;;10.17;;
35518;SDS011;21627;48.216;16.482;2023-02-28T00:26:18;19.03;;;9.30;;
35518;SDS011;21627;48.216;16.482;2023-02-28T00:28:47;17.80;;;9.97;;
35518;SDS011;21627;48.216;16.482;2023-02-28T00:31:15;18.80;;;9.83;;
35518;SDS011;21627;48.216;16.482;2023-02-28T00:33:42;22.37;;;10.43;;
35518;SDS011;21627;48.216;16.482;2023-02-28T00:36:15;21.33;;;9.50;;
35518;SDS011;21627;48.216;16.482;2023-02-28T00:38:42;19.93;;;8.93;;
35518;SDS011;21627;48.216;16.482;2023-02-28T00:41:09;19.40;;;10.23;;
35518;SDS011;21627;48.216;16.482;2023-02-28T00:43:37;16.07;;;9.63;;
35518;SDS011;21627;48.216;16.482;2023-02-28T00:46:05;17.87;;;9.90;;
35518;SDS011;21627;48.216;16.482;2023-02-28T00:48:33;17.30;;;9.33;;
35518;SDS011;21627;48.216;16.482;2023-02-28T00:51:01;23.07;;;10.20;;
35518;SDS011;21627;48.216;16.482;2023-02-28T00:53:29;18.93;;;10.33;;
35518;SDS011;21627;48.216;16.482;2023-02-28T00:55:56;21.43;;;11.10;;
35518;SDS011;21627;48.216;16.482;2023-02-28T00:58:24;18.97;;;9.90;;
35518;SDS011;21627;48.216;16.482;2023-02-28T01:00:52;15.27;;;9.67;;
35518;SDS011;21627;48.216;16.482;2023-02-28T01:03:20;24.43;;;10.43;;
35518;SDS011;21627;48.216;16.482;2023-02-28T01:05:49;20.90;;;10.23;;
35518;SDS011;21627;48.216;16.482;2023-02-28T01:08:16;21.17;;;10.23;;
35518;SDS011;21627;48.216;16.482;2023-02-28T01:10:44;21.23;;;10.53;;
35518;SDS011;21627;48.216;16.482;2023-02-28T01:13:11;24.07;;;10.40;;
35518;SDS011;21627;48.216;16.482;2023-02-28T01:15:50;24.47;;;10.43;;
35518;SDS011;21627;48.216;16.482;2023-02-28T01:18:20;20.60;;;9.63;;
35518;SDS011;21627;48.216;16.482;2023-02-28T01:20:48;21.27;;;10.47;;
35518;SDS011;21627;48.216;16.482;2023-02-28T01:23:15;20.30;;;9.80;;
35518;SDS011;21627;48.216;16.482;2023-02-28T01:25:42;19.20;;;9.80;;
35518;SDS011;21627;48.216;16.482;2023-02-28T01:28:10;20.70;;;10.23;;
35518;SDS011;21627;48.216;16.482;2023-02-28T01:30:37;26.03;;;9.97;;
35518;SDS011;21627;48.216;16.482;2023-02-28T01:33:04;20.47;;;10.37;;
35518;SDS011;21627;48.216;16.482;2023-02-28T01:35:32;18.30;;;10.27;;
35518;SDS011;21627;48.216;16.482;2023-02-28T01:38:03;18.67;;;10.57;;
35518;SDS011;21627;48.216;16.482;2023-02-28T01:40:47;21.85;;;10.85;;
35518;SDS011;21627;48.216;16.482;2023-02-28T01:45:56;20.53;;;9.90;;
35518;SDS011;21627;48.216;16.482;2023-02-28T01:48:31;17.87;;;10.30;;
35518;SDS011;21627;48.216;16.482;2023-02-28T01:51:04;18.20;;;9.90;;
35518;SDS011;21627;48.216;16.482;2023-02-28T01:53:39;20.63;;;11.03;;
35518;SDS011;21627;48.216;16.482;2023-02-28T01:56:12;19.80;;;10.97;;
35518;SDS011;21627;48.216;16.482;2023-02-28T01:58:47;19.25;;;10.55;;
35518;SDS011;21627;48.216;16.482;2023-02-28T02:01:17;22.70;;;11.43;;
35518;SDS011;21627;48.216;16.482;2023-02-28T02:03:53;18.13;;;10.10;;
35518;SDS011;21627;48.216;16.482;2023-02-28T02:06:26;20.90;;;11.13;;
35518;SDS011;21627;48.216;16.482;2023-02-28T02:09:00;17.10;;;9.52;;
35518;SDS011;21627;48.216;16.482;2023-02-28T02:11:27;22.13;;;10.63;;
35518;SDS011;21627;48.216;16.482;2023-02-28T02:29:06;21.30;;;9.93;;
35518;SDS011;21627;48.216;16.482;2023-02-28T02:35:58;22.37;;;11.77;;
35518;SDS011;21627;48.216;16.482;2023-02-28T02:41:47;22.20;;;10.97;;
35518;SDS011;21627;48.216;16.482;2023-02-28T02:44:30;20.13;;;10.43;;
35518;SDS011;21627;48.216;16.482;2023-02-28T02:47:15;19.63;;;9.13;;
35518;SDS011;21627;48.216;16.482;2023-02-28T02:49:48;20.03;;;10.33;;
35518;SDS011;21627;48.216;16.482;2023-02-28T02:52:23;23.98;;;10.30;;
35518;SDS011;21627;48.216;16.482;2023-02-28T02:55:02;20.97;;;10.53;;
35518;SDS011;21627;48.216;16.482;2023-02-28T02:57:33;21.60;;;9.93;;
35518;SDS011;21627;48.216;16.482;2023-02-28T03:00:06;23.60;;;10.73;;
35518;SDS011;21627;48.216;16.482;2023-02-28T03:02:36;19.97;;;10.53;;
35518;SDS011;21627;48.216;16.482;2023-02-28T03:05:12;21.70;;;11.33;;
35518;SDS011;21627;48.216;16.482;2023-02-28T03:07:47;20.77;;;10.60;;
35518;SDS011;21627;48.216;16.482;2023-02-28T03:10:33;20.70;;;10.57;;
35518;SDS011;21627;48.216;16.482;2023-02-28T03:13:11;18.50;;;9.63;;
35518;SDS011;21627;48.216;16.482;2023-02-28T03:18:32;19.83;;;10.87;;
35518;SDS011;21627;48.216;16.482;2023-02-28T03:21:14;17.87;;;10.17;;
35518;SDS011;21627;48.216;16.482;2023-02-28T03:24:27;20.27;;;10.27;;
35518;SDS011;21627;48.216;16.482;2023-02-28T03:28:00;19.03;;;10.13;;
35518;SDS011;21627;48.216;16.482;2023-02-28T03:33:32;21.43;;;10.57;;
35518;SDS011;21627;48.216;16.482;2023-02-28T03:36:04;20.90;;;10.57;;
35518;SDS011;21627;48.216;16.482;2023-02-28T03:39:04;21.57;;;10.27;;
35518;SDS011;21627;48.216;16.482;2023-02-28T03:41:37;19.13;;;10.47;;
35518;SDS011;21627;48.216;16.482;2023-02-28T03:44:16;20.10;;;11.07;;
35518;SDS011;21627;48.216;16.482;2023-02-28T03:47:10;20.87;;;10.80;;
35518;SDS011;21627;48.216;16.482;2023-02-28T03:49:59;24.70;;;11.70;;
35518;SDS011;21627;48.216;16.482;2023-02-28T03:52:54;22.67;;;11.07;;
35518;SDS011;21627;48.216;16.482;2023-02-28T03:55:37;22.27;;;11.27;;
35518;SDS011;21627;48.216;16.482;2023-02-28T03:58:14;17.40;;;10.57;;
35518;SDS011;21627;48.216;16.482;2023-02-28T04:01:11;23.93;;;11.87;;
35518;SDS011;21627;48.216;16.482;2023-02-28T04:03:41;24.10;;;11.33;;
35518;SDS011;21627;48.216;16.482;2023-02-28T04:06:13;20.27;;;10.57;;
35518;SDS011;21627;48.216;16.482;2023-02-28T04:08:47;25.60;;;11.83;;
35518;SDS011;21627;48.216;16.482;2023-02-28T04:14:09;21.67;;;11.23;;
35518;SDS011;21627;48.216;16.482;2023-02-28T04:16:39;24.43;;;11.93;;
35518;SDS011;21627;48.216;16.482;2023-02-28T04:19:08;26.43;;;11.83;;
35518;SDS011;21627;48.216;16.482;2023-02-28T04:21:39;21.80;;;10.77;;
35518;SDS011;21627;48.216;16.482;2023-02-28T04:24:10;20.00;;;11.40;;
35518;SDS011;21627;48.216;16.482;2023-02-28T04:26:47;24.43;;;10.20;;
35518;SDS011;21627;48.216;16.482;2023-02-28T04:29:19;20.03;;;11.87;;
35518;SDS011;21627;48.216;16.482;2023-02-28T04:31:55;21.73;;;11.47;;
35518;SDS011;21627;48.216;16.482;2023-02-28T04:34:27;21.77;;;11.43;;
35518;SDS011;21627;48.216;16.482;2023-02-28T04:36:56;22.90;;;12.00;;
35518;SDS011;21627;48.216;16.482;2023-02-28T04:39:38;26.00;;;12.33;;
35518;SDS011;21627;48.216;16.482;2023-02-28T04:42:06;19.40;;;10.57;;
35518;SDS011;21627;48.216;16.482;2023-02-28T04:44:34;24.87;;;11.90;;
35518;SDS011;21627;48.216;16.482;2023-02-28T04:47:01;21.60;;;11.87;;
35518;SDS011;21627;48.216;16.482;2023-02-28T04:49:28;21.37;;;11.37;;
35518;SDS011;21627;48.216;16.482;2023-02-28T04:51:56;20.77;;;11.63;;
35518;SDS011;21627;48.216;16.482;2023-02-28T04:54:23;22.37;;;12.03;;
35518;SDS011;21627;48.216;16.482;2023-02-28T04:56:50;23.27;;;12.03;;
35518;SDS011;21627;48.216;16.482;2023-02-28T04:59:18;22.17;;;11.70;;
35518;SDS011;21627;48.216;16.482;2023-02-28T05:01:45;27.20;;;13.23;;
35518;SDS011;21627;48.216;16.482;2023-02-28T05:04:14;23.23;;;11.10;;
35518;SDS011;21627;48.216;16.482;2023-02-28T05:06:42;24.23;;;11.53;;
35518;SDS011;21627;48.216;16.482;2023-02-28T05:09:09;21.17;;;11.53;;
35518;SDS011;21627;48.216;16.482;2023-02-28T05:11:40;27.53;;;11.40;;
35518;SDS011;21627;48.216;16.482;2023-02-28T05:14:12;24.40;;;12.77;;
35518;SDS011;21627;48.216;16.482;2023-02-28T05:16:40;24.83;;;12.47;;
35518;SDS011;21627;48.216;16.482;2023-02-28T05:19:08;23.17;;;11.60;;
35518;SDS011;21627;48.216;16.482;2023-02-28T05:21:39;26.77;;;12.63;;
35518;SDS011;21627;48.216;16.482;2023-02-28T05:24:11;22.83;;;11.73;;
35518;SDS011;21627;48.216;16.482;2023-02-28T05:26:40;20.50;;;11.97;;
35518;SDS011;21627;48.216;16.482;2023-02-28T05:29:09;24.83;;;11.90;;
35518;SDS011;21627;48.216;16.482;2023-02-28T05:31:37;20.03;;;11.87;;
35518;SDS011;21627;48.216;16.482;2023-02-28T05:34:04;23.57;;;12.67;;
35518;SDS011;21627;48.216;16.482;2023-02-28T05:36:32;26.73;;;11.47;;
35518;SDS011;21627;48.216;16.482;2023-02-28T05:39:00;25.13;;;11.93;;
35518;SDS011;21627;48.216;16.482;2023-02-28T05:41:27;24.73;;;12.40;;
35518;SDS011;21627;48.216;16.482;2023-02-28T05:43:55;23.33;;;12.63;;
35518;SDS011;21627;48.216;16.482;2023-02-28T05:46:23;24.80;;;12.70;;
35518;SDS011;21627;48.216;16.482;2023-02-28T05:48:51;24.73;;;12.43;;
35518;SDS011;21627;48.216;16.482;2023-02-28T05:51:18;30.47;;;13.03;;
35518;SDS011;21627;48.216;16.482;2023-02-28T05:53:45;28.00;;;13.33;;
35518;SDS011;21627;48.216;16.482;2023-02-28T05:56:14;23.30;;;13.37;;
35518;SDS011;21627;48.216;16.482;2023-02-28T05:58:42;29.93;;;13.43;;
35518;SDS011;21627;48.216;16.482;2023-02-28T06:01:20;29.27;;;12.37;;
35518;SDS011;21627;48.216;16.482;2023-02-28T06:04:03;25.97;;;13.33;;
35518;SDS011;21627;48.216;16.482;2023-02-28T06:06:32;26.67;;;14.63;;
35518;SDS011;21627;48.216;16.482;2023-02-28T06:09:03;27.70;;;13.37;;
35518;SDS011;21627;48.216;16.482;2023-02-28T06:11:32;27.53;;;13.40;;
35518;SDS011;21627;48.216;16.482;2023-02-28T06:13:59;29.13;;;13.47;;
35518;SDS011;21627;48.216;16.482;2023-02-28T06:16:29;27.60;;;13.80;;
35518;SDS011;21627;48.216;16.482;2023-02-28T06:19:02;31.13;;;13.47;;
35518;SDS011;21627;48.216;16.482;2023-02-28T06:21:30;29.83;;;13.43;;
35518;SDS011;21627;48.216;16.482;2023-02-28T06:24:01;33.10;;;14.10;;
35518;SDS011;21627;48.216;16.482;2023-02-28T06:26:29;26.13;;;13.43;;
35518;SDS011;21627;48.216;16.482;2023-02-28T06:28:57;27.87;;;14.17;;
35518;SDS011;21627;48.216;16.482;2023-02-28T06:31:24;28.77;;;13.77;;
35518;SDS011;21627;48.216;16.482;2023-02-28T06:33:52;22.90;;;13.70;;
35518;SDS011;21627;48.216;16.482;2023-02-28T06:36:20;30.17;;;13.73;;
35518;SDS011;21627;48.216;16.482;2023-02-28T06:38:47;31.60;;;15.20;;
35518;SDS011;21627;48.216;16.482;2023-02-28T06:41:24;29.10;;;13.23;;
35518;SDS011;21627;48.216;16.482;2023-02-28T06:43:54;30.70;;;13.93;;
35518;SDS011;21627;48.216;16.482;2023-02-28T06:46:22;26.37;;;13.97;;
35518;SDS011;21627;48.216;16.482;2023-02-28T06:48:50;32.30;;;15.60;;
35518;SDS011;21627;48.216;16.482;2023-02-28T06:51:18;34.93;;;14.83;;
35518;SDS011;21627;48.216;16.482;2023-02-28T06:53:50;24.90;;;13.47;;
35518;SDS011;21627;48.216;16.482;2023-02-28T06:56:17;29.37;;;13.97;;
35518;SDS011;21627;48.216;16.482;2023-02-28T06:58:47;29.20;;;13.23;;
35518;SDS011;21627;48.216;16.482;2023-02-28T07:01:19;29.03;;;14.27;;
35518;SDS011;21627;48.216;16.482;2023-02-28T07:03:49;29.77;;;13.90;;
35518;SDS011;21627;48.216;16.482;2023-02-28T07:06:19;29.13;;;13.87;;
35518;SDS011;21627;48.216;16.482;2023-02-28T07:08:52;31.00;;;15.20;;
35518;SDS011;21627;48.216;16.482;2023-02-28T07:11:21;22.37;;;12.93;;
35518;SDS011;21627;48.216;16.482;2023-02-28T07:13:55;32.03;;;13.60;;
35518;SDS011;21627;48.216;16.482;2023-02-28T07:16:23;27.17;;;13.50;;
35518;SDS011;21627;48.216;16.482;2023-02-28T07:18:52;29.53;;;14.53;;
35518;SDS011;21627;48.216;16.482;2023-02-28T07:21:20;32.23;;;14.07;;
35518;SDS011;21627;48.216;16.482;2023-02-28T07:23:48;28.20;;;15.77;;
35518;SDS011;21627;48.216;16.482;2023-02-28T07:26:22;31.90;;;15.53;;
35518;SDS011;21627;48.216;16.482;2023-02-28T07:28:50;34.20;;;15.60;;
35518;SDS011;21627;48.216;16.482;2023-02-28T07:31:23;29.03;;;16.47;;
35518;SDS011;21627;48.216;16.482;2023-02-28T07:33:50;30.33;;;15.70;;
35518;SDS011;21627;48.216;16.482;2023-02-28T07:36:18;27.53;;;13.93;;
35518;SDS011;21627;48.216;16.482;2023-02-28T07:38:46;30.80;;;14.13;;
35518;SDS011;21627;48.216;16.482;2023-02-28T07:41:17;27.30;;;14.07;;
35518;SDS011;21627;48.216;16.482;2023-02-28T07:43:47;25.30;;;14.70;;
35518;SDS011;21627;48.216;16.482;2023-02-28T07:46:16;24.80;;;13.53;;
35518;SDS011;21627;48.216;16.482;2023-02-28T07:48:44;30.17;;;14.53;;
35518;SDS011;21627;48.216;16.482;2023-02-28T07:51:11;28.30;;;14.87;;
35518;SDS011;21627;48.216;16.482;2023-02-28T07:53:39;27.07;;;14.67;;
35518;SDS011;21627;48.216;16.482;2023-02-28T07:56:09;24.00;;;13.53;;
35518;SDS011;21627;48.216;16.482;2023-02-28T07:58:40;33.57;;;16.53;;
35518;SDS011;21627;48.216;16.482;2023-02-28T08:01:07;24.93;;;13.73;;
35518;SDS011;21627;48.216;16.482;2023-02-28T08:03:36;21.50;;;12.97;;
35518;SDS011;21627;48.216;16.482;2023-02-28T08:06:05;29.47;;;14.87;;
35518;SDS011;21627;48.216;16.482;2023-02-28T08:08:34;27.43;;;14.17;;
35518;SDS011;21627;48.216;16.482;2023-02-28T08:11:02;24.30;;;13.53;;
35518;SDS011;21627;48.216;16.482;2023-02-28T08:13:30;28.67;;;14.10;;
35518;SDS011;21627;48.216;16.482;2023-02-28T08:15:57;28.97;;;14.87;;
35518;SDS011;21627;48.216;16.482;2023-02-28T08:18:27;27.13;;;14.43;;
35518;SDS011;21627;48.216;16.482;2023-02-28T08:20:55;31.27;;;15.37;;
35518;SDS011;21627;48.216;16.482;2023-02-28T08:23:22;27.27;;;14.70;;
35518;SDS011;21627;48.216;16.482;2023-02-28T08:25:56;25.47;;;14.17;;
35518;SDS011;21627;48.216;16.482;2023-02-28T08:28:23;21.97;;;13.70;;
35518;SDS011;21627;48.216;16.482;2023-02-28T08:30:55;25.83;;;15.43;;
35518;SDS011;21627;48.216;16.482;2023-02-28T08:33:23;23.83;;;13.80;;
35518;SDS011;21627;48.216;16.482;2023-02-28T08:35:55;26.10;;;14.10;;
35518;SDS011;21627;48.216;16.482;2023-02-28T08:38:23;29.80;;;14.67;;
35518;SDS011;21627;48.216;16.482;2023-02-28T08:40:56;25.43;;;13.27;;
35518;SDS011;21627;48.216;16.482;2023-02-28T08:43:25;36.43;;;15.03;;
35518;SDS011;21627;48.216;16.482;2023-02-28T08:45:56;24.53;;;13.73;;
35518;SDS011;21627;48.216;16.482;2023-02-28T08:48:27;28.00;;;13.17;;
35518;SDS011;21627;48.216;16.482;2023-02-28T08:50:58;26.87;;;13.07;;
35518;SDS011;21627;48.216;16.482;2023-02-28T08:53:36;22.50;;;14.10;;
35518;SDS011;21627;48.216;16.482;2023-02-28T08:56:11;27.80;;;13.90;;
35518;SDS011;21627;48.216;16.482;2023-02-28T08:58:39;20.97;;;13.37;;
35518;SDS011;21627;48.216;16.482;2023-02-28T09:01:11;25.63;;;13.50;;
35518;SDS011;21627;48.216;16.482;2023-02-28T09:03:41;24.30;;;13.40;;
35518;SDS011;21627;48.216;16.482;2023-02-28T09:06:10;23.75;;;13.50;;
35518;SDS011;21627;48.216;16.482;2023-02-28T09:08:38;24.67;;;12.52;;
35518;SDS011;21627;48.216;16.482;2023-02-28T09:11:06;24.33;;;13.32;;
35518;SDS011;21627;48.216;16.482;2023-02-28T09:13:34;25.65;;;12.82;;
35518;SDS011;21627;48.216;16.482;2023-02-28T09:16:02;23.98;;;12.88;;
35518;SDS011;21627;48.216;16.482;2023-02-28T09:18:33;26.15;;;12.30;;
35518;SDS011;21627;48.216;16.482;2023-02-28T09:21:06;31.90;;;13.10;;
35518;SDS011;21627;48.216;16.482;2023-02-28T09:23:36;22.35;;;13.07;;
35518;SDS011;21627;48.216;16.482;2023-02-28T09:26:06;24.83;;;14.25;;
35518;SDS011;21627;48.216;16.482;2023-02-28T09:28:34;21.23;;;12.82;;
35518;SDS011;21627;48.216;16.482;2023-02-28T09:31:04;24.15;;;12.88;;
35518;SDS011;21627;48.216;16.482;2023-02-28T09:33:31;26.67;;;12.87;;
35518;SDS011;21627;48.216;16.482;2023-02-28T09:36:01;24.13;;;12.45;;
35518;SDS011;21627;48.216;16.482;2023-02-28T09:38:30;29.45;;;15.20;;
35518;SDS011;21627;48.216;16.482;2023-02-28T09:41:02;26.10;;;13.77;;
35518;SDS011;21627;48.216;16.482;2023-02-28T09:43:39;24.83;;;13.60;;
35518;SDS011;21627;48.216;16.482;2023-02-28T09:46:28;25.58;;;14.07;;
35518;SDS011;21627;48.216;16.482;2023-02-28T09:49:08;23.88;;;13.32;;
35518;SDS011;21627;48.216;16.482;2023-02-28T09:52:10;24.67;;;14.30;;
35518;SDS011;21627;48.216;16.482;2023-02-28T09:54:45;23.40;;;13.20;;
35518;SDS011;21627;48.216;16.482;2023-02-28T09:57:31;23.57;;;14.33;;
35518;SDS011;21627;48.216;16.482;2023-02-28T10:00:08;23.43;;;14.63;;
35518;SDS011;21627;48.216;16.482;2023-02-28T10:05:50;24.10;;;13.90;;
35518;SDS011;21627;48.216;16.482;2023-02-28T10:08:38;24.30;;;14.02;;
35518;SDS011;21627;48.216;16.482;2023-02-28T10:11:28;24.53;;;12.67;;
35518;SDS011;21627;48.216;16.482;2023-02-28T10:27:13;33.33;;;13.73;;
35518;SDS011;21627;48.216;16.482;2023-02-28T10:29:45;24.42;;;14.13;;
35518;SDS011;21627;48.216;16.482;2023-02-28T10:32:22;22.42;;;12.80;;
35518;SDS011;21627;48.216;16.482;2023-02-28T10:35:15;21.35;;;12.82;;
35518;SDS011;21627;48.216;16.482;2023-02-28T10:37:46;24.17;;;13.63;;
35518;SDS011;21627;48.216;16.482;2023-02-28T10:45:56;22.70;;;13.60;;
35518;SDS011;21627;48.216;16.482;2023-02-28T10:48:37;18.65;;;12.15;;
35518;SDS011;21627;48.216;16.482;2023-02-28T10:51:18;21.85;;;12.57;;
35518;SDS011;21627;48.216;16.482;2023-02-28T10:53:52;20.90;;;12.23;;
35518;SDS011;21627;48.216;16.482;2023-02-28T10:56:29;22.67;;;13.50;;
35518;SDS011;21627;48.216;16.482;2023-02-28T10:59:21;19.90;;;13.40;;
35518;SDS011;21627;48.216;16.482;2023-02-28T11:01:58;25.63;;;12.93;;
35518;SDS011;21627;48.216;16.482;2023-02-28T11:06:57;24.13;;;13.25;;
35518;SDS011;21627;48.216;16.482;2023-02-28T11:09:34;22.15;;;13.13;;
35518;SDS011;21627;48.216;16.482;2023-02-28T11:12:07;30.27;;;14.27;;
35518;SDS011;21627;48.216;16.482;2023-02-28T11:14:53;20.20;;;13.10;;
35518;SDS011;21627;48.216;16.482;2023-02-28T11:17:31;19.83;;;12.10;;
35518;SDS011;21627;48.216;16.482;2023-02-28T11:20:03;22.35;;;13.10;;
35518;SDS011;21627;48.216;16.482;2023-02-28T11:22:35;21.58;;;13.73;;
35518;SDS011;21627;48.216;16.482;2023-02-28T11:25:19;22.63;;;13.40;;
35518;SDS011;21627;48.216;16.482;2023-02-28T11:27:59;18.85;;;11.48;;
35518;SDS011;21627;48.216;16.482;2023-02-28T11:30:37;17.88;;;11.82;;
35518;SDS011;21627;48.216;16.482;2023-02-28T11:33:23;19.90;;;12.23;;
35518;SDS011;21627;48.216;16.482;2023-02-28T11:38:47;20.63;;;13.25;;
35518;SDS011;21627;48.216;16.482;2023-02-28T11:44:24;22.45;;;13.85;;
35518;SDS011;21627;48.216;16.482;2023-02-28T11:49:51;21.42;;;12.75;;
35518;SDS011;21627;48.216;16.482;2023-02-28T12:10:06;24.50;;;14.02;;
35518;SDS011;21627;48.216;16.482;2023-02-28T12:18:51;19.20;;;12.18;;
35518;SDS011;21627;48.216;16.482;2023-02-28T12:24:39;23.20;;;12.75;;
35518;SDS011;21627;48.216;16.482;2023-02-28T12:27:18;19.58;;;11.90;;
35518;SDS011;21627;48.216;16.482;2023-02-28T12:30:05;24.70;;;12.48;;
35518;SDS011;21627;48.216;16.482;2023-02-28T12:32:47;18.77;;;12.73;;
35518;SDS011;21627;48.216;16.482;2023-02-28T12:35:49;24.52;;;11.30;;
35518;SDS011;21627;48.216;16.482;2023-02-28T12:38:23;17.50;;;11.70;;
35518;SDS011;21627;48.216;16.482;2023-02-28T12:43:42;15.80;;;10.02;;
35518;SDS011;21627;48.216;16.482;2023-02-28T12:46:29;19.77;;;11.88;;
35518;SDS011;21627;48.216;16.482;2023-02-28T12:49:08;16.63;;;12.02;;
35518;SDS011;21627;48.216;16.482;2023-02-28T12:51:51;18.23;;;11.15;;
35518;SDS011;21627;48.216;16.482;2023-02-28T12:54:21;21.77;;;11.82;;
35518;SDS011;21627;48.216;16.482;2023-02-28T13:00:03;18.42;;;11.00;;
35518;SDS011;21627;48.216;16.482;2023-02-28T13:06:05;18.08;;;10.48;;
35518;SDS011;21627;48.216;16.482;2023-02-28T13:09:08;17.58;;;9.93;;
35518;SDS011;21627;48.216;16.482;2023-02-28T13:11:41;15.38;;;9.60;;
35518;SDS011;21627;48.216;16.482;2023-02-28T13:22:35;17.70;;;10.13;;
35518;SDS011;21627;48.216;16.482;2023-02-28T13:27:52;15.90;;;9.80;;
35518;SDS011;21627;48.216;16.482;2023-02-28T13:36:07;19.60;;;9.85;;
35518;SDS011;21627;48.216;16.482;2023-02-28T13:38:45;21.70;;;10.18;;
35518;SDS011;21627;48.216;16.482;2023-02-28T14:01:11;18.77;;;10.02;;
35518;SDS011;21627;48.216;16.482;2023-02-28T14:06:52;20.92;;;10.15;;
35518;SDS011;21627;48.216;16.482;2023-02-28T14:09:27;15.48;;;10.63;;
35518;SDS011;21627;48.216;16.482;2023-02-28T14:18:14;17.77;;;10.32;;
35518;SDS011;21627;48.216;16.482;2023-02-28T14:21:03;15.60;;;10.77;;
35518;SDS011;21627;48.216;16.482;2023-02-28T14:32:29;16.98;;;10.55;;
35518;SDS011;21627;48.216;16.482;2023-02-28T14:38:25;18.02;;;10.20;;
35518;SDS011;21627;48.216;16.482;2023-02-28T14:41:14;18.00;;;10.35;;
35518;SDS011;21627;48.216;16.482;2023-02-28T14:43:54;17.55;;;10.32;;
35518;SDS011;21627;48.216;16.482;2023-02-28T14:46:25;14.43;;;10.30;;
35518;SDS011;21627;48.216;16.482;2023-02-28T14:49:09;15.30;;;10.20;;
35518;SDS011;21627;48.216;16.482;2023-02-28T14:52:15;19.40;;;10.65;;
35518;SDS011;21627;48.216;16.482;2023-02-28T14:54:54;20.10;;;10.05;;
35518;SDS011;21627;48.216;16.482;2023-02-28T14:57:50;14.52;;;9.88;;
35518;SDS011;21627;48.216;16.482;2023-02-28T15:00:25;17.15;;;9.60;;
35518;SDS011;21627;48.216;16.482;2023-02-28T15:02:59;20.67;;;10.57;;
35518;SDS011;21627;48.216;16.482;2023-02-28T15:05:47;15.10;;;9.50;;
35518;SDS011;21627;48.216;16.482;2023-02-28T15:08:22;16.73;;;9.63;;
35518;SDS011;21627;48.216;16.482;2023-02-28T15:13:40;12.50;;;9.32;;
35518;SDS011;21627;48.216;16.482;2023-02-28T15:16:14;19.02;;;10.38;;
35518;SDS011;21627;48.216;16.482;2023-02-28T15:18:54;19.55;;;10.63;;
35518;SDS011;21627;48.216;16.482;2023-02-28T15:21:29;15.05;;;10.13;;
35518;SDS011;21627;48.216;16.482;2023-02-28T15:26:54;18.20;;;10.77;;
35518;SDS011;21627;48.216;16.482;2023-02-28T15:29:27;23.30;;;10.27;;
35518;SDS011;21627;48.216;16.482;2023-02-28T15:32:03;15.00;;;10.10;;
35518;SDS011;21627;48.216;16.482;2023-02-28T15:34:37;22.43;;;11.93;;
35518;SDS011;21627;48.216;16.482;2023-02-28T15:40:17;25.02;;;10.70;;
35518;SDS011;21627;48.216;16.482;2023-02-28T15:43:05;16.25;;;11.25;;
35518;SDS011;21627;48.216;16.482;2023-02-28T15:45:44;15.52;;;10.63;;
35518;SDS011;21627;48.216;16.482;2023-02-28T15:48:24;19.48;;;11.32;;
35518;SDS011;21627;48.216;16.482;2023-02-28T15:53:56;17.67;;;11.15;;
35518;SDS011;21627;48.216;16.482;2023-02-28T15:56:39;23.88;;;11.77;;
35518;SDS011;21627;48.216;16.482;2023-02-28T15:59:23;18.33;;;11.48;;
35518;SDS011;21627;48.216;16.482;2023-02-28T16:07:39;20.75;;;11.50;;
35518;SDS011;21627;48.216;16.482;2023-02-28T16:10:10;16.58;;;10.73;;
35518;SDS011;21627;48.216;16.482;2023-02-28T16:12:40;17.98;;;11.35;;
35518;SDS011;21627;48.216;16.482;2023-02-28T16:15:19;21.55;;;11.43;;
35518;SDS011;21627;48.216;16.482;2023-02-28T16:17:53;18.80;;;10.38;;
35518;SDS011;21627;48.216;16.482;2023-02-28T16:20:23;20.52;;;10.95;;
35518;SDS011;21627;48.216;16.482;2023-02-28T16:22:55;23.42;;;12.13;;
35518;SDS011;21627;48.216;16.482;2023-02-28T16:25:24;23.23;;;11.20;;
35518;SDS011;21627;48.216;16.482;2023-02-28T16:28:00;19.77;;;11.18;;
35518;SDS011;21627;48.216;16.482;2023-02-28T16:30:28;17.83;;;11.07;;
35518;SDS011;21627;48.216;16.482;2023-02-28T16:32:59;17.52;;;11.27;;
35518;SDS011;21627;48.216;16.482;2023-02-28T16:35:30;20.50;;;11.35;;
35518;SDS011;21627;48.216;16.482;2023-02-28T16:37:58;16.10;;;10.93;;
35518;SDS011;21627;48.216;16.482;2023-02-28T16:40:25;15.63;;;11.00;;
35518;SDS011;21627;48.216;16.482;2023-02-28T16:42:56;25.35;;;12.10;;
35518;SDS011;21627;48.216;16.482;2023-02-28T16:45:27;21.38;;;13.77;;
35518;SDS011;21627;48.216;16.482;2023-02-28T16:47:55;29.15;;;13.65;;
35518;SDS011;21627;48.216;16.482;2023-02-28T16:50:24;22.67;;;12.27;;
35518;SDS011;21627;48.216;16.482;2023-02-28T16:52:59;24.27;;;14.02;;
35518;SDS011;21627;48.216;16.482;2023-02-28T16:55:27;19.02;;;11.55;;
35518;SDS011;21627;48.216;16.482;2023-02-28T16:57:55;19.92;;;12.90;;
35518;SDS011;21627;48.216;16.482;2023-02-28T17:00:29;20.25;;;12.82;;
35518;SDS011;21627;48.216;16.482;2023-02-28T17:02:58;25.45;;;14.15;;
35518;SDS011;21627;48.216;16.482;2023-02-28T17:05:26;19.40;;;12.75;;
35518;SDS011;21627;48.216;16.482;2023-02-28T17:08:00;28.23;;;14.93;;
35518;SDS011;21627;48.216;16.482;2023-02-28T17:10:28;31.95;;;15.15;;
35518;SDS011;21627;48.216;16.482;2023-02-28T17:12:56;25.20;;;13.93;;
35518;SDS011;21627;48.216;16.482;2023-02-28T17:15:38;24.05;;;13.80;;
35518;SDS011;21627;48.216;16.482;2023-02-28T17:18:08;28.77;;;15.68;;
35518;SDS011;21627;48.216;16.482;2023-02-28T17:20:41;23.48;;;14.85;;
35518;SDS011;21627;48.216;16.482;2023-02-28T17:23:09;24.08;;;14.40;;
35518;SDS011;21627;48.216;16.482;2023-02-28T17:25:37;26.52;;;14.23;;
35518;SDS011;21627;48.216;16.482;2023-02-28T17:28:06;29.63;;;15.27;;
35518;SDS011;21627;48.216;16.482;2023-02-28T17:30:38;30.48;;;14.57;;
35518;SDS011;21627;48.216;16.482;2023-02-28T17:33:14;29.65;;;15.95;;
35518;SDS011;21627;48.216;16.482;2023-02-28T17:35:45;28.20;;;16.15;;
35518;SDS011;21627;48.216;16.482;2023-02-28T17:38:15;31.20;;;17.40;;
35518;SDS011;21627;48.216;16.482;2023-02-28T17:40:47;38.13;;;17.70;;
35518;SDS011;21627;48.216;16.482;2023-02-28T17:43:14;32.40;;;18.02;;
35518;SDS011;21627;48.216;16.482;2023-02-28T17:45:42;29.47;;;16.27;;